Accueil
METAR-TAF:

METAR-TAF

Aéroports :

Guaratinguetá, São Paulo, Brésil

latitude: 22-47S, longitude: 045-12W, altitude: 537 m

Observation

Le bulletin a été fait il y a 51 minutes, à 11:00 UTC
Vent 4 kt de est/nord-est
Température 23°C
Humidité 69%
Pression 1017 hPa
Visibilité: 4000 m
Nuages fragmentés à une hauteur de 1800 ft
Nuages fragmentés à une hauteur de 8000 ft
brume sèche

METAR: SBGW 201100Z 06004KT 4000 HZ BKN018 BKN080 23/17 Q1017

Heure: 08:51 (11:51 UTC)

Prévision

Le bulletin a été fait il y a 8 heures et 51 minutes, à 03:00 UTC
Prévision valable du 20 à 06 UTC au 20 à 18 UTC
Vent 6 kt de est
Visibilité 10 km ou plus
Nuages épars à une hauteur de 3000 ft
Probabilité 40%
du 20 à 08 UTC au 20 à 11 UTC
Nuages fragmentés à une hauteur de 1000 ft

TAF: SBGW 200300Z 2006/2018 08006KT 9999 SCT030 TN18/2008Z TX28/2018Z PROB40 2008/2011 BKN010 RMK PDJ

Observations et prévisions météorologiques de plus de 4000 aéroports (messages METAR et TAF).

Les stations disponibles sont représentées par des disques jaunes et rouges sur la carte.

Passer la souris dessus pour voir le nom de la station.

Cliquer dessus pour voir les observations et prévisions météorologiques.

Pour changer de carte: cliquez sur les boutons verts avec une croix noire pour zoomer, sur le bouton vert avec un tiret pour effectuer un zoom arrière, ou sur les flèches vertes pour les cartes adjacentes.


METAR-TAF: